Flight Track Log - Related Links

Times and Time Zones

All times are in EDT time to prevent confusion due to time zone crossing. See the RPA3253 flight status page for this flight to view local times or setup timezone preferences in your user account.

Time Position Orientation Groundspeed Altitude Reporting Facility
EDT Latitude Longitude Course Direction KTS MPH feet Rate Location/Type
Tue 07:34:54 PM 42.7672 -73.8061 169° South 149 171 1,200  Level Boston Center
Tue 07:36:19 PM 42.8269 -73.8725 321° Northwest 229 264 3,700 1,823 Climbing Boston Center
Tue 07:37:55 PM 42.8842 -73.9561 313° West 237 273 6,700 2,346 Climbing Boston Center
Tue 07:38:00 PM 42.4197 -74.1590 170° South  Level Estimated
Tue 07:38:55 PM 42.8992 -74.0839 279° West 252 290 9,800  Level Boston Center
Tue 07:39:00 PM 42.3641 -74.0378 122° Southeast  Level FlightAware Approximate
Tue 07:39:55 PM 42.9017 -74.1917 272° West 286 329 11,900  Level Boston Center
Tue 07:40:00 PM 42.2824 -74.1279 169° South  Level Estimated
Tue 07:40:55 PM 42.8586 -74.2811 237° Southwest 286 329 13,900  Level Boston Center
Tue 07:41:55 PM 42.7786 -74.3353 206° Southwest 291 335 16,000 1,900 Climbing Boston Center
Tue 07:42:55 PM 42.6989 -74.3556 191° South 304 350 17,700 1,750 Climbing Boston Center
Tue 07:43:55 PM 42.6022 -74.2906 154° Southeast 328 377 19,500 1,500 Climbing Boston Center
Tue 07:44:55 PM 42.5239 -74.2233 148° Southeast 350 403 20,700 1,250 Climbing Boston Center
Tue 07:45:55 PM 42.4333 -74.1503 149° Southeast 362 417 22,000 1,650 Climbing Boston Center
Tue 07:46:55 PM 42.3406 -74.0778 150° Southeast 375 432 24,000 1,750 Climbing Boston Center
Tue 07:47:55 PM 42.2431 -74.0497 168° South 368 423 25,500 1,200 Climbing Boston Center
Tue 07:48:55 PM 42.1414 -74.0278 171° South 359 413 26,400 1,100 Climbing Boston Center
Tue 07:49:55 PM 42.0417 -74.0056 171° South 365 420 27,700 1,350 Climbing Boston Center
Tue 07:50:55 PM 41.9397 -73.9808 170° South 372 428 29,100 1,250 Climbing Boston Center
Tue 07:51:55 PM 41.8339 -73.9531 169° South 378 435 30,200 1,150 Climbing Boston Center
Tue 07:52:55 PM 41.7306 -73.8756 151° Southeast 378 435 31,400 1,000 Climbing Boston Center
Tue 07:53:55 PM 41.6294 -73.8036 152° Southeast 397 457 32,200 810 Climbing Boston Center
Tue 07:56:15 PM 41.4056 -73.7392 168° South 382 440 34,100 848 Climbing New York Center
Tue 07:57:13 PM 41.3283 -73.8186 218° Southwest 338 389 35,000 915 Climbing New York Center
Tue 07:58:13 PM 41.2533 -73.9033 220° Southwest 344 396 35,900 504 Climbing New York Center
Tue 07:59:12 PM 41.1803 -73.9856 220° Southwest 349 402 36,000 49 Climbing New York Center
Tue 08:00:15 PM 41.1050 -74.0700 220° Southwest 355 409 36,000  Level New York Center
Tue 08:01:25 PM 41.0128 -74.1700 219° Southwest 361 415 36,000  Level New York Center
Tue 08:02:26 PM 40.9247 -74.2561 216° Southwest 361 415 36,000  Level New York Center
Tue 08:03:27 PM 40.8472 -74.3400 219° Southwest 361 415 36,000  Level New York Center
Tue 08:04:27 PM 40.7739 -74.4264 222° Southwest 361 415 36,000  Level New York Center
Tue 08:05:25 PM 40.7122 -74.5272 231° Southwest 361 415 36,000  Level New York Center
Tue 08:06:26 PM 40.6506 -74.6333 233° Southwest 366 421 36,000  Level New York Center
Tue 08:07:25 PM 40.5867 -74.7361 231° Southwest 366 421 36,000  Level New York Center
Tue 08:08:27 PM 40.5208 -74.8333 228° Southwest 366 421 36,000  Level New York Center
Tue 08:09:27 PM 40.4506 -74.9356 228° Southwest 366 421 36,000  Level New York Center
Tue 08:10:25 PM 40.3786 -75.0267 224° Southwest 371 427 36,000  Level New York Center
Tue 08:11:27 PM 40.3103 -75.1286 229° Southwest 371 427 36,000  Level New York Center
Tue 08:12:25 PM 40.2419 -75.2303 229° Southwest 371 427 36,000  Level New York Center
Tue 08:13:25 PM 40.1781 -75.3186 227° Southwest 371 427 36,000  Level New York Center
Tue 08:14:26 PM 40.1075 -75.4144 226° Southwest 371 427 36,000  Level New York Center
Tue 08:15:24 PM 40.0369 -75.5156 228° Southwest 371 427 36,000  Level New York Center
Tue 08:16:27 PM 39.9664 -75.6083 225° Southwest 371 427 36,000  Level New York Center
Tue 08:17:25 PM 39.8997 -75.7092 229° Southwest 371 427 36,000  Level New York Center
Tue 08:18:25 PM 39.8328 -75.8125 230° Southwest 376 433 36,000  Level New York Center
Tue 08:19:27 PM 39.7614 -75.9208 229° Southwest 376 433 36,000  Level New York Center
Tue 08:20:25 PM 39.7072 -76.0142 233° Southwest 364 419 36,000  Level New York Center
Tue 08:21:26 PM 39.6400 -76.1142 229° Southwest 364 419 36,000  Level New York Center
Tue 08:22:36 PM 39.5661 -76.2350 232° Southwest 356 410 36,000  Level Washington Center
Tue 08:23:36 PM 39.4989 -76.3364 229° Southwest 367 422 36,000  Level Washington Center
Tue 08:24:37 PM 39.4314 -76.4378 229° Southwest 373 429 36,000  Level Washington Center
Tue 08:25:37 PM 39.3639 -76.5419 230° Southwest 373 429 36,000  Level Washington Center
Tue 08:26:35 PM 39.3006 -76.6403 230° Southwest 378 435 36,000  Level Washington Center
Tue 08:27:35 PM 39.2350 -76.7439 231° Southwest 373 429 36,000  Level Washington Center
Tue 08:28:36 PM 39.1717 -76.8419 230° Southwest 373 429 36,000  Level Washington Center
Tue 08:29:37 PM 39.1081 -76.9425 231° Southwest 373 429 36,000  Level Washington Center
Tue 08:30:35 PM 39.0400 -77.0428 229° Southwest 373 429 36,000  Level Washington Center
Tue 08:31:36 PM 38.9619 -77.1267 220° Southwest 373 429 36,000  Level Washington Center
Tue 08:32:36 PM 38.8817 -77.2131 220° Southwest 373 429 36,000  Level Washington Center
Tue 08:33:37 PM 38.7969 -77.3069 221° Southwest 379 436 36,000  Level Washington Center
Tue 08:34:36 PM 38.7164 -77.3956 221° Southwest 379 436 36,000  Level Washington Center
Tue 08:35:35 PM 38.6381 -77.4814 221° Southwest 379 436 36,000  Level Washington Center
Tue 08:36:35 PM 38.5594 -77.5697 221° Southwest 379 436 36,000  Level Washington Center
Tue 08:37:37 PM 38.4789 -77.6525 219° Southwest 379 436 36,000  Level Washington Center
Tue 08:38:37 PM 38.4022 -77.7403 222° Southwest 379 436 36,000  Level Washington Center
Tue 08:39:35 PM 38.3233 -77.8256 220° Southwest 379 436 36,000  Level Washington Center
Tue 08:40:36 PM 38.2447 -77.9078 219° Southwest 374 430 36,000  Level Washington Center
Tue 08:41:37 PM 38.1658 -77.9925 220° Southwest 374 430 36,000  Level Washington Center
Tue 08:42:38 PM 38.0850 -78.0822 221° Southwest 379 436 36,000  Level Washington Center
Tue 08:43:35 PM 38.0144 -78.1536 219° Southwest 379 436 36,000  Level Washington Center
Tue 08:44:37 PM 37.9497 -78.2514 230° Southwest 366 421 36,000  Level Washington Center
Tue 08:45:37 PM 37.8764 -78.3594 229° Southwest 366 421 36,000  Level Washington Center
Tue 08:46:35 PM 37.8117 -78.4542 229° Southwest 366 421 36,000  Level Washington Center
Tue 08:47:36 PM 37.7406 -78.5514 227° Southwest 373 429 36,000  Level Washington Center
Tue 08:48:36 PM 37.6756 -78.6458 229° Southwest 373 429 36,000  Level Washington Center
Tue 08:49:37 PM 37.6128 -78.7353 228° Southwest 373 429 36,000  Level Washington Center
Tue 08:50:37 PM 37.5436 -78.8292 227° Southwest 373 429 36,000  Level Washington Center
Tue 08:51:37 PM 37.4783 -78.9233 229° Southwest 373 429 36,000  Level Washington Center
Tue 08:52:36 PM 37.4089 -79.0197 228° Southwest 373 429 36,000 -303 Level Washington Center
Tue 08:53:36 PM 37.3372 -79.1183 228° Southwest 368 423 35,400 -639 Descending Washington Center
Tue 08:54:38 PM 37.2739 -79.2094 229° Southwest 362 417 34,700 -655 Descending Washington Center
Tue 08:55:35 PM 37.2064 -79.3000 227° Southwest 362 417 34,100 -356 Descending Washington Center
Tue 08:56:36 PM 37.1411 -79.3933 229° Southwest 362 417 34,000 -49 Descending Washington Center
Tue 08:57:37 PM 37.0592 -79.4725 218° Southwest 362 417 34,000 -347 Level Washington Center
Tue 08:58:37 PM 36.9758 -79.5306 209° Southwest 377 434 33,300 -1,059 Descending Washington Center
Tue 08:59:36 PM 36.8819 -79.5961 209° Southwest 387 445 31,900 -1,412 Descending Washington Center
Tue 09:00:36 PM 36.7856 -79.6661 210° Southwest 395 455 30,500 -1,579 Descending Washington Center
Tue 09:02:08 PM 36.6369 -79.7700 209° Southwest 387 445 27,900 -1,737 Descending Atlanta Center
Tue 09:03:08 PM 36.5453 -79.8397 211° Southwest 387 445 26,100 -1,950 Descending Atlanta Center
Tue 09:04:08 PM 36.4436 -79.9119 210° Southwest 387 445 24,000 -1,900 Descending Atlanta Center
Tue 09:05:08 PM 36.3539 -79.9758 210° Southwest 387 445 22,300 -1,000 Descending Atlanta Center
Tue 09:06:08 PM 36.2686 -80.0447 213° Southwest 381 438 22,000 -350 Descending Atlanta Center
Tue 09:07:08 PM 36.1853 -80.1156 214° Southwest 375 432 21,600 -1,150 Descending Atlanta Center
Tue 09:08:08 PM 36.1103 -80.1783 214° Southwest 369 425 19,700 -1,900 Descending Atlanta Center
Tue 09:09:08 PM 36.0289 -80.2464 214° Southwest 364 419 17,800 -1,965 Descending Atlanta Center
Tue 09:10:01 PM 35.9539 -80.3167 217° Southwest 354 407 16,000 -1,890 Descending Atlanta Center
Tue 09:11:15 PM 35.8583 -80.4006 215° Southwest 342 394 13,800 -1,489 Descending Atlanta Center
Tue 09:12:22 PM 35.7708 -80.4733 214° Southwest 315 362 12,500 -1,168 Descending Atlanta Center
Tue 09:13:08 PM 35.7286 -80.5264 226° Southwest 314 361 11,600 -1,698 Descending Atlanta Center
Tue 09:14:08 PM 35.6828 -80.6025 233° Southwest 292 336 9,500 -1,950 Descending Atlanta Center
Tue 09:15:08 PM 35.6325 -80.6789 231° Southwest 286 329 7,700 -1,750 Descending Atlanta Center
Tue 09:16:08 PM 35.5847 -80.7547 232° Southwest 286 329 6,000 -850 Descending Atlanta Center
Tue 09:17:08 PM 35.5425 -80.8203 232° Southwest 279 321 6,000 -900 Level Atlanta Center
Tue 09:18:08 PM 35.4986 -80.8908 233° Southwest 279 321 4,200 -1,000 Descending Atlanta Center
Tue 09:19:08 PM 35.4436 -80.9492 221° Southwest 268 308 4,000 -408 Descending Atlanta Center
Tue 09:20:35 PM 35.3586 -80.9700 191° South 177 204 3,200 -718 Descending Atlanta Center
Tue 09:21:30 PM 35.3103 -80.9617 172° South 185 213 2,300 -931 Descending Atlanta Center
Tue 09:22:31 PM 35.2644 -80.9583 177° South 162 186 1,400 -885 Descending Atlanta Center

Login

Don't have an account? Register now (free) for customized features, flight alerts, and more!